Temp     Hi    Low   Out    Dew  Wind  Wind   Wind    Hi    Hi   Wind   Heat    THW   THSW                Rain  Solar   Solar Hi Solar   UV    UV    Hi     Heat    Cool    In     In    In     In     In   In Air          Wind  Wind    ISS   Arc.
  Date    Time     Out   Temp   Temp   Hum    Pt. Speed   Dir    Run Speed   Dir  Chill  Index  Index  Index   Bar    Rain  Rate   Rad.  Energy    Rad.  Index  Dose   UV     D-D     D-D    Temp   Hum    Dew   Heat    EMC Density     ET   Samp   Tx   Recept  Int.
------------------------------------------------------------------------------------------------------------------------------------------------------------------------------------------------------------------------------------------------------------------------
 6/16/19 12:30a   67.0   67.3   67.0    53   49.3   5.0     W   2.50   9.0     W   67.0   65.9   65.9   61.7  29.799  0.00  0.00     0     0.00      0     0.0  0.00   0.0   0.000   0.042   77.5    39   50.6   76.6   7.50  .0727    0.000   667    2    100.0   30 
 6/16/19  1:00a   67.8   67.8   67.0    54   50.5   7.0     W   3.50  14.0     W   67.8   66.9   66.9   62.8  29.791  0.00  0.00     0     0.00      0     0.0  0.00   0.0   0.000   0.058   77.5    39   50.6   76.6   7.50  .0726    0.004   685    2    100.0   30 
 6/16/19  1:30a   67.2   67.9   67.2    55   50.5   6.0   WSW   3.00  14.0     W   67.2   66.3   66.3   62.1  29.791  0.00  0.00     0     0.00      0     0.0  0.00   0.0   0.000   0.046   77.3    40   51.1   76.5   7.60  .0727    0.000   682    2    100.0   30 
 6/16/19  2:00a   66.5   67.2   66.5    58   51.3   2.0   WSW   1.00   6.0   WSW   66.5   65.7   65.7   61.6  29.784  0.00  0.00     0     0.00      0     0.0  0.00   0.0   0.000   0.031   77.3    40   51.1   76.5   7.60  .0726    0.003   674    2    100.0   30 
 6/16/19  2:30a   65.3   66.5   65.2    62   51.9   2.0     W   1.00   7.0   WSW   65.3   64.7   64.7   60.6  29.778  0.00  0.00     0     0.00      0     0.0  0.00   0.0   0.000   0.006   77.2    40   51.0   76.4   7.61  .0726    0.000   685    2    100.0   30 
 6/16/19  3:00a   64.3   65.2   64.3    65   52.3   1.0     W   0.50   5.0   WSW   64.3   63.9   63.9   59.8  29.772  0.00  0.00     0     0.00      0     0.0  0.00   0.0   0.015   0.000   77.0    41   51.5   76.3   7.75  .0726    0.002   678    2    100.0   30 
 6/16/19  3:30a   63.2   64.3   63.2    64   50.8   2.0   NNE   1.00   6.0   NNE   63.2   62.5   62.5   58.3  29.766  0.00  0.00     0     0.00      0     0.0  0.00   0.0   0.037   0.000   77.0    41   51.5   76.3   7.75  .0726    0.000   675    2    100.0   30 
 6/16/19  4:00a   62.0   63.2   62.0    65   50.1   1.0   NNE   0.50   3.0   NNE   62.0   61.3   61.3   57.1  29.767  0.00  0.00     0     0.00      0     0.0  0.00   0.0   0.063   0.000   76.8    41   51.3   76.0   7.75  .0727    0.002   684    2    100.0   30 
 6/16/19  4:30a   60.0   62.0   60.0    70   50.2   1.0     W   0.50   3.0     W   60.0   59.4   59.4   55.2  29.767  0.00  0.00     0     0.00      0     0.0  0.00   0.0   0.104   0.000   76.6    41   51.1   75.8   7.75  .0727    0.000   668    2    100.0   30 
 6/16/19  5:00a   58.8   60.0   58.8    74   50.5   1.0     W   0.50   3.0     W   58.8   58.3   58.3   54.1  29.766  0.00  0.00     0     0.00      0     0.0  0.00   0.0   0.129   0.000   76.3    41   50.9   75.5   7.75  .0727    0.001   686    2    100.0   30 
 6/16/19  5:30a   58.1   58.9   58.1    75   50.2   1.0     W   0.50   4.0     W   58.1   57.6   57.6   53.4  29.770  0.00  0.00     0     0.00      0     0.0  0.00   0.0   0.144   0.000   76.3    41   50.9   75.5   7.75  .0727    0.000   683    2    100.0   30 
 6/16/19  6:00a   57.4   58.2   57.4    77   50.2   1.0   WNW   0.50   4.0     W   57.4   57.0   57.0   52.9  29.771  0.00  0.00     3     0.13     14     0.0  0.00   0.0   0.158   0.000   76.1    41   50.7   75.3   7.75  .0728    0.000   675    2    100.0   30 
 6/16/19  6:30a   57.6   57.6   57.3    78   50.8   1.0   WNW   0.50   3.0   WNW   57.6   57.3   57.3   53.7  29.773  0.00  0.00    29     1.25     44     0.0  0.00   0.0   0.154   0.000   75.9    42   51.2   75.2   7.93  .0728    0.000   686    2    100.0   30 
 6/16/19  7:00a   59.0   59.0   57.6    79   52.5   2.0   NNW   1.00   5.0    NW   59.0   58.7   58.7   58.5  29.774  0.00  0.00    51     2.19     56     0.0  0.00   0.0   0.125   0.000   75.7    42   51.0   75.0   7.94  .0728    0.001   680    2    100.0   30 
 6/16/19  7:30a   61.9   61.9   59.0    75   53.9   1.0   NNW   0.50   4.0   NNW   61.9   61.7   61.7   64.1  29.773  0.00  0.00   120     5.16    278     0.2  0.03   0.6   0.065   0.000   75.7    42   51.0   75.0   7.94  .0728    0.000   676    2    100.0   30 
 6/16/19  8:00a   64.3   64.4   61.9    68   53.5   3.0   NNW   1.50   7.0   NNW   64.3   64.0   64.0   69.3  29.780  0.00  0.00   223     9.59    378     0.7  0.11   1.2   0.015   0.000   75.9    42   51.2   75.2   7.93  .0728    0.004   686    2    100.0   30 
 6/16/19  8:30a   65.0   65.3   64.3    64   52.5   6.0   NNW   3.00  11.0   NNW   65.0   64.6   64.6   72.1  29.778  0.00  0.00   343    14.75    454     1.3  0.21   1.5   0.000   0.000   76.1    42   51.3   75.4   7.93  .0728    0.000   674    2    100.0   30 
 6/16/19  9:00a   66.0   66.0   64.9    62   52.6   7.0   NNW   3.50  13.0   NNW   66.0   65.5   65.5   74.3  29.776  0.00  0.00   478    20.56    584     2.2  0.35   2.8   0.000   0.021   75.0    43   51.0   74.5   8.05  .0729    0.011   679    2    100.0   30 
 6/16/19  9:30a   67.1   67.3   66.0    59   52.3   8.0   NNW   4.00  13.0   NNW   66.5   66.5   65.9   74.9  29.778  0.00  0.00   586    25.20    649     3.2  0.51   3.6   0.000   0.044   74.5    44   51.2   74.0   8.26  .0730    0.000   685    2    100.0   30 
 6/16/19 10:00a   68.6   68.6   67.0    57   52.8   8.0   NNW   4.00  14.0     N   67.9   67.9   67.2   76.4  29.770  0.00  0.00   676    29.07    728     4.3  0.69   4.9   0.000   0.075   74.3    45   51.6   73.8   8.45  .0730    0.017   673    2    100.0   30 
 6/16/19 10:30a   69.6   69.7   68.6    58   54.2   8.0   NNW   4.00  15.0   NNW   69.0   68.7   68.1   77.4  29.767  0.00  0.00   768    33.03    803     5.5  0.88   6.0   0.000   0.096   74.3    46   52.2   73.9   8.56  .0730    0.000   684    2    100.0   30 
 6/16/19 11:00a   70.8   70.8   69.6    59   55.8  10.0   NNW   5.00  17.0   NNW   68.7   70.1   68.0   76.6  29.767  0.00  0.00   831    35.74    858     6.6  1.06   7.1   0.000   0.121   74.9    46   52.7   74.6   8.55  .0729    0.022   685    2    100.0   30 
 6/16/19 11:30a   72.1   72.4   70.8    56   55.5   9.0   NNW   4.50  17.0   NNW   70.7   71.7   70.3   79.2  29.765  0.00  0.00   887    38.15    919     7.6  1.22   8.2   0.000   0.148   75.2    46   53.0   75.0   8.55  .0728    0.000   671    2    100.0   30 
 6/16/19 12:00p   73.6   73.6   72.1    51   54.4  10.0   NNW   5.00  17.0   NNW   71.6   73.3   71.3   79.4  29.763  0.00  0.00   937    40.30    951     8.6  1.38   8.9   0.000   0.179   75.4    45   52.6   75.1   8.44  .0728    0.025   680    2    100.0   30 
 6/16/19 12:30p   75.3   75.7   73.6    47   53.7   9.0   NNW   4.50  17.0   NNW   74.0   75.1   73.8   81.6  29.755  0.00  0.00   968    41.63    977     9.2  1.48   9.4   0.000   0.215   75.7    43   51.6   75.1   8.05  .0728    0.000   651    2     97.6   30 
 6/16/19  1:00p   74.8   75.6   74.8    46   52.6  10.0   NNW   5.00  21.0   NNW   72.8   74.5   72.5   79.3  29.752  0.00  0.00   984    42.32    988     9.5  1.53   9.5   0.000   0.204   76.1    43   52.0   75.5   8.05  .0727    0.028   642    2     96.3   30 
 6/16/19  1:30p   75.6   75.6   74.7    48   54.5  10.0   NNW   5.00  19.0   NNW   73.7   75.5   73.6   80.6  29.745  0.00  0.00   985    42.36    988     9.5  1.53   9.6   0.000   0.221   76.4    43   52.2   75.8   8.05  .0726    0.000   651    2     97.6   30 
 6/16/19  2:00p   75.7   75.7   75.3    48   54.6  12.0   NNW   6.00  20.0   NNW   73.0   75.6   72.9   79.8  29.740  0.00  0.00   969    41.67    981     9.1  1.46   9.3   0.000   0.223   76.8    43   52.6   76.2   8.05  .0725    0.029   672    2    100.0   30 
 6/16/19  2:30p   76.3   76.3   75.3    48   55.2  11.0   NNW   5.50  19.0   NNW   74.0   76.1   73.8   81.3  29.736  0.00  0.00   940    40.43    956     8.3  1.33   8.7   0.000   0.235   77.2    44   53.6   76.7   8.21  .0724    0.000   676    2    100.0   30 
 6/16/19  3:00p   76.2   76.6   75.9    49   55.6  12.0   NNW   6.00  21.0   NNW   73.5   76.1   73.4   81.0  29.728  0.00  0.00   900    38.71    918     7.4  1.19   7.8   0.000   0.233   77.5    44   53.9   77.0   8.20  .0724    0.028   684    2    100.0   30 
 6/16/19  3:30p   77.0   77.6   76.3    49   56.4  11.0   NNW   5.50  19.0   NNW   74.7   76.7   74.4   82.6  29.721  0.00  0.00   848    36.47    875     6.3  1.01   6.8   0.000   0.250   77.9    44   54.2   77.4   8.19  .0723    0.000   669    2    100.0   30 
 6/16/19  4:00p   77.2   77.2   76.6    47   55.4  11.0   NNW   5.50  20.0    NW   74.9   76.8   74.5   82.9  29.708  0.00  0.00   780    33.54    817     5.0  0.80   5.6   0.000   0.254   78.2    44   54.5   77.7   8.19  .0722    0.026   683    2    100.0   30 
 6/16/19  4:30p   77.2   77.8   77.0    48   56.0  11.0   NNW   5.50  19.0   NNW   74.9   76.9   74.6   83.3  29.705  0.00  0.00   703    30.23    744     3.9  0.63   4.5   0.000   0.254   78.6    44   54.9   78.2   8.18  .0721    0.000   681    2    100.0   30 
 6/16/19  5:00p   77.0   77.6   77.0    46   54.6  12.0    NW   6.00  20.0   NNW   74.4   76.6   74.0   82.5  29.706  0.00  0.00   617    26.53    661     2.8  0.45   3.3   0.000   0.250   78.6    43   54.2   78.1   8.05  .0722    0.022   675    2    100.0   30 
 6/16/19  5:30p   77.1   77.1   76.5    44   53.5  12.0    NW   6.00  19.0   NNW   74.5   76.5   73.9   82.4  29.705  0.00  0.00   526    22.62    573     1.9  0.31   2.3   0.000   0.252   78.0    42   53.0   77.3   7.89  .0723    0.000   685    2    100.0   30 
 6/16/19  6:00p   76.8   77.1   76.8    42   52.0  11.0    NW   5.50  19.0   NNW   74.5   76.1   73.8   82.0  29.707  0.00  0.00   427    18.36    478     1.2  0.19   1.5   0.000   0.246   78.0    40   51.7   77.1   7.59  .0723    0.018   677    2    100.0   30 
 6/16/19  6:30p   76.3   76.8   76.3    41   50.9  10.0    NW   5.00  22.0   NNW   74.4   75.5   73.6   80.9  29.711  0.00  0.00   324    13.93    374     0.4  0.06   0.9   0.000   0.235   77.9    39   50.9   76.9   7.49  .0724    0.000   680    2    100.0   30 
 6/16/19  7:00p   77.2   77.3   76.0    42   52.3   6.0    NW   3.00  13.0    NW   77.2   76.5   76.5   82.2  29.720  0.00  0.00   217     9.33    269     0.0  0.00   0.0   0.000   0.254   77.9    40   51.6   77.0   7.59  .0724    0.011   680    2    100.0   30 
 6/16/19  7:30p   76.0   77.6   76.0    42   51.2   3.0   NNW   1.50   7.0   WNW   76.0   75.3   75.3   73.2  29.726  0.00  0.00    94     4.04    158     0.0  0.00   0.0   0.000   0.229   78.2    39   51.2   77.2   7.49  .0724    0.000   672    2    100.0   30 
 6/16/19  8:00p   71.9   75.9   71.9    47   50.6   7.0     W   3.50  17.0     W   71.9   70.6   70.6   66.8  29.732  0.00  0.00    13     0.56     19     0.0  0.00   0.0   0.000   0.144   77.9    40   51.6   77.0   7.59  .0724    0.004   684    2    100.0   30 
 6/16/19  8:30p   70.4   71.9   70.4    48   49.8   9.0   WNW   4.50  17.0   WNW   69.0   68.6   67.2   63.4  29.742  0.00  0.00     1     0.04      7     0.0  0.00   0.0   0.000   0.113   77.0    40   50.8   76.2   7.61  .0726    0.000   683    2    100.0   30 
 6/16/19  9:00p   69.6   70.4   69.6    48   49.0   7.0   WNW   3.50  13.0   WNW   69.6   67.8   67.8   63.7  29.749  0.00  0.00     0     0.00      0     0.0  0.00   0.0   0.000   0.096   76.8    39   50.0   75.9   7.51  .0727    0.004   674    2    100.0   30 
 6/16/19  9:30p   68.4   69.6   68.4    48   47.9   4.0     W   2.00   7.0   WSW   68.4   66.9   66.9   62.6  29.757  0.00  0.00     0     0.00      0     0.0  0.00   0.0   0.000   0.071   76.8    39   50.0   75.9   7.51  .0727    0.000   684    2    100.0   30 
 6/16/19 10:00p   67.5   68.4   67.5    51   48.7   2.0     W   1.00   4.0     W   67.5   66.3   66.3   62.0  29.763  0.00  0.00     0     0.00      0     0.0  0.00   0.0   0.000   0.052   76.6    38   49.1   75.7   7.32  .0727    0.003   677    2    100.0   30 
 6/16/19 10:30p   65.6   67.5   65.6    53   48.0   1.0     W   0.50   4.0   WNW   65.6   64.3   64.3   60.0  29.759  0.00  0.00     0     0.00      0     0.0  0.00   0.0   0.000   0.012   76.3    40   50.2   75.4   7.62  .0727    0.000   678    2    100.0   30 
 6/16/19 11:00p   64.1   65.6   64.1    50   45.1   1.0   WNW   0.50   4.0   WNW   64.1   62.3   62.3   57.9  29.762  0.00  0.00     0     0.00      0     0.0  0.00   0.0   0.019   0.000   76.6    40   50.5   75.8   7.62  .0727    0.002   681    2    100.0   30 
 6/16/19 11:30p   63.0   64.1   63.0    50   44.1   2.0     W   1.00   7.0   WSW   63.0   61.1   61.1   56.6  29.760  0.00  0.00     0     0.00      0     0.0  0.00   0.0   0.042   0.000   77.0    41   51.5   76.3   7.75  .0726    0.000   673    2    100.0   30 
 6/17/19 12:00a   62.2   63.0   62.2    52   44.3   1.0    NW   0.50   4.0     W   62.2   60.5   60.5   56.0  29.757  0.00  0.00     0     0.00      0     0.0  0.00   0.0   0.058   0.000   77.0    42   52.1   76.3   7.91  .0726    0.002   684    2    100.0   30 
 6/17/19 12:30a   62.4   62.4   61.9    56   46.5   1.0    NW   0.50   3.0    NW   62.4   61.0   61.0   56.6  29.761  0.00  0.00     0     0.00      0     0.0  0.00   0.0   0.054   0.000   77.0    41   51.5   76.3   7.75  .0726    0.000   683    2    100.0   30 
 6/17/19  1:00a   62.3   62.6   62.3    54   45.4   1.0     W   0.50   4.0     W   62.3   60.7   60.7   56.3  29.758  0.00  0.00     0     0.00      0     0.0  0.00   0.0   0.056   0.000   76.8    42   52.0   76.1   7.91  .0726    0.002   671    2    100.0   30 
 6/17/19  1:30a   61.5   62.3   61.5    57   46.1   0.0     W   0.00   3.0   WNW   61.5   60.1   60.1   55.7  29.759  0.00  0.00     0     0.00      0     0.0  0.00   0.0   0.073   0.000   76.6    41   51.1   75.8   7.75  .0727    0.000   686    2    100.0   30 
 6/17/19  2:00a   60.9   61.5   60.9    59   46.5   2.0   WNW   1.00   4.0   WNW   60.9   59.6   59.6   55.2  29.752  0.00  0.00     0     0.00      0     0.0  0.00   0.0   0.085   0.000   76.3    41   50.9   75.5   7.75  .0727    0.002   679    2    100.0   30 
 6/17/19  2:30a   59.8   60.9   59.8    63   47.2   0.0   WSW   0.00   2.0   WSW   59.8   58.7   58.7   54.4  29.747  0.00  0.00     0     0.00      0     0.0  0.00   0.0   0.108   0.000   76.1    41   50.7   75.3   7.75  .0727    0.000   674    2    100.0   30 
 6/17/19  3:00a   58.6   59.8   58.6    66   47.3   0.0   WSW   0.00   2.0   WSW   58.6   57.7   57.7   53.4  29.747  0.00  0.00     0     0.00      0     0.0  0.00   0.0   0.133   0.000   75.9    41   50.5   75.1   7.75  .0728    0.001   681    2    100.0   30 
 6/17/19  3:30a   57.4   58.6   57.4    67   46.5   0.0   WSW   0.00   2.0   WSW   57.4   56.5   56.5   52.1  29.745  0.00  0.00     0     0.00      0     0.0  0.00   0.0   0.158   0.000   75.7    41   50.3   74.9   7.75  .0728    0.000   676    2    100.0   30 
 6/17/19  4:00a   56.6   57.4   56.6    69   46.5   0.0   WSW   0.00   2.0   WSW   56.6   55.8   55.8   51.4  29.752  0.00  0.00     0     0.00      0     0.0  0.00   0.0   0.175   0.000   75.6    41   50.2   74.8   7.75  .0728    0.001   680    2    100.0   30 
 6/17/19  4:30a   55.7   56.6   55.7    71   46.4   0.0   WSW   0.00   2.0   WSW   55.7   54.9   54.9   50.5  29.757  0.00  0.00     0     0.00      0     0.0  0.00   0.0   0.194   0.000   75.9    40   49.8   75.0   7.63  .0728    0.000   550    2     82.5   30 
 6/17/19  5:00a   55.1   55.7   55.0    71   45.9   2.0   WSW   1.00   4.0   WSW   55.1   54.4   54.4   50.0  29.766  0.00  0.00     0     0.00      0     0.0  0.00   0.0   0.206   0.000   75.2    41   49.9   74.5   7.75  .0729    0.001   675    2    100.0   30 
 6/17/19  5:30a   54.8   55.1   54.8    70   45.2   2.0    SW   1.00   4.0    SW   54.8   54.0   54.0   49.6  29.773  0.00  0.00     0     0.00      0     0.0  0.00   0.0   0.213   0.000   75.0    41   49.7   74.3   7.75  .0730    0.000   681    2    100.0   30 
 6/17/19  6:00a   54.8   55.0   54.8    70   45.2   2.0    SW   1.00   5.0    SW   54.8   54.0   54.0   49.7  29.778  0.00  0.00     6     0.26     16     0.0  0.00   0.0   0.213   0.000   74.9    41   49.6   74.2   7.75  .0730    0.001   685    2    100.0   30 
 6/17/19  6:30a   54.5   54.8   54.5    73   46.0   0.0    SW   0.00   2.0    SW   54.5   53.9   53.9   50.2  29.784  0.00  0.00    32     1.38     47     0.0  0.00   0.0   0.219   0.000   74.7    41   49.4   74.0   7.76  .0730    0.000   670    2    100.0   30 
 6/17/19  7:00a   55.3   55.3   54.5    77   48.2   0.0    SW   0.00   2.0    SW   55.3   54.9   54.9   55.0  29.785  0.00  0.00    60     2.58     69     0.0  0.00   0.0   0.202   0.000   74.5    41   49.2   73.7   7.77  .0731    0.001   680    2    100.0   30 
 6/17/19  7:30a   57.1   57.1   55.3    71   47.8   0.0    SW   0.00   1.0    SW   57.1   56.4   56.4   57.5  29.785  0.00  0.00    89     3.83    121     0.0  0.00   0.0   0.165   0.000   74.3    41   49.1   73.5   7.78  .0731    0.000   685    2    100.0   30 
 6/17/19  8:00a   60.8   60.8   57.1    68   50.2   0.0    SW   0.00   2.0    SW   60.8   60.1   60.1   65.4  29.788  0.00  0.00   228     9.81    353     0.6  0.10   1.0   0.088   0.000   74.2    41   49.0   73.4   7.78  .0731    0.003   671    2    100.0   30 
 6/17/19  8:30a   66.7   66.7   60.8    58   51.5   1.0    SW   0.50   3.0    SW   66.7   66.0   66.0   74.5  29.791  0.00  0.00   410    17.63    466     1.3  0.21   1.6   0.000   0.035   74.7    41   49.4   74.0   7.76  .0731    0.000   683    2    100.0   30 
 6/17/19  9:00a   70.8   70.8   66.7    46   49.0   1.0    SW   0.50   3.0    SW   70.8   68.9   68.9   78.0  29.791  0.00  0.00   506    21.76    547     2.0  0.32   2.4   0.000   0.121   75.0    42   50.3   74.4   7.95  .0730    0.011   684    2    100.0   30 
 6/17/19  9:30a   73.5   73.5   70.8    42   49.0   2.0   NNW   1.00   5.0    NW   73.5   72.5   72.5   81.8  29.784  0.00  0.00   561    24.13    594     2.8  0.45   3.3   0.000   0.177   75.2    42   50.5   74.6   7.95  .0729    0.000   671    2    100.0   30 
 6/17/19 10:00a   75.6   75.6   73.5    36   46.8   2.0   NNW   1.00   6.0   NNW   75.6   74.5   74.5   84.0  29.781  0.00  0.00   640    27.52    677     3.9  0.63   4.4   0.000   0.221   75.6    42   50.9   74.9   7.94  .0729    0.016   685    2    100.0   30 
 6/17/19 10:30a   77.8   77.8   75.6    33   46.4   3.0     N   1.50   8.0   ENE   77.8   76.4   76.4   86.1  29.781  0.00  0.00   699    30.06    765     4.9  0.79   5.6   0.000   0.267   75.9    42   51.2   75.2   7.93  .0728    0.000   674    2    100.0   30 
 6/17/19 11:00a   78.4   78.4   77.7    35   48.5   4.0   NNW   2.00   9.0    NW   78.4   77.1   77.1   86.9  29.777  0.00  0.00   818    35.18    870     6.3  1.01   7.0   0.000   0.279   76.3    41   50.9   75.5   7.75  .0728    0.021   679    2    100.0   30 
 6/17/19 11:30a   79.1   79.2   78.4    37   50.6   6.0   NNW   3.00  12.0    NW   79.1   78.0   78.0   87.6  29.773  0.00  0.00   887    38.15    918     7.4  1.19   7.9   0.000   0.294   76.4    41   51.0   75.6   7.75  .0727    0.000   686    2    100.0   30